Time;durP1;ratioP1;P1;durP2;ratioP2;P2;SDS_P1;SDS_P2;PMS_P1;PMS_P2;Temp;Humidity;BMP_temperature;BMP_pressure;BME280_temperature;BME280_humidity;BME280_pressure;Samples;Min_cycle;Max_cycle;Signal;HPM_P1;HPM_P2
2023/08/27 00:01:28;;;;;;;4.63;2.72;;;17.70;99.90;;;;;;5051913;28;20194;-75
2023/08/27 00:03:56;;;;;;;13.20;3.05;;;17.70;99.90;;;;;;5052043;28;20221;-75
2023/08/27 00:06:24;;;;;;;5.32;2.60;;;17.70;99.90;;;;;;5051369;28;20198;-77
2023/08/27 00:08:52;;;;;;;4.88;2.50;;;17.60;99.90;;;;;;5043486;28;20257;-75
2023/08/27 00:11:21;;;;;;;5.50;2.40;;;17.60;99.90;;;;;;5031472;28;20194;-75
2023/08/27 00:13:49;;;;;;;6.50;3.17;;;17.60;99.90;;;;;;5031688;28;20237;-75
2023/08/27 00:16:19;;;;;;;5.47;2.75;;;17.60;99.90;;;;;;5031252;28;20215;-76
2023/08/27 00:18:46;;;;;;;8.18;3.00;;;17.60;99.90;;;;;;5031649;28;20266;-75
2023/08/27 00:21:14;;;;;;;5.82;2.53;;;17.60;99.90;;;;;;5031510;28;20256;-75
2023/08/27 00:23:42;;;;;;;6.22;3.00;;;17.60;99.90;;;;;;5032051;28;20253;-75
2023/08/27 00:26:10;;;;;;;4.60;3.00;;;17.60;99.90;;;;;;5031517;28;20298;-75
2023/08/27 00:28:38;;;;;;;7.78;3.28;;;17.60;99.90;;;;;;5031834;28;20257;-75
2023/08/27 00:31:06;;;;;;;5.05;2.60;;;17.60;99.90;;;;;;5031855;28;20195;-75
2023/08/27 00:33:35;;;;;;;5.38;2.50;;;17.60;99.90;;;;;;5031882;28;20600;-75
2023/08/27 00:36:03;;;;;;;8.55;2.95;;;17.50;99.90;;;;;;5031338;28;20846;-75
2023/08/27 00:38:31;;;;;;;7.18;3.30;;;17.50;99.90;;;;;;5031602;28;20268;-76
2023/08/27 00:40:59;;;;;;;4.25;2.92;;;17.50;99.90;;;;;;5011823;28;20273;-75
2023/08/27 00:43:27;;;;;;;3.60;3.08;;;17.50;99.90;;;;;;5011944;28;20202;-75
2023/08/27 00:45:55;;;;;;;6.30;2.58;;;17.40;99.90;;;;;;5011873;28;20214;-75
2023/08/27 00:48:23;;;;;;;4.68;2.63;;;17.40;99.90;;;;;;5026861;28;20244;-75
2023/08/27 00:50:52;;;;;;;6.15;2.78;;;17.40;99.90;;;;;;5031155;28;20245;-75
2023/08/27 00:53:20;;;;;;;5.97;2.97;;;17.40;99.90;;;;;;5031664;28;20233;-75
2023/08/27 00:55:50;;;;;;;6.55;2.50;;;17.40;99.90;;;;;;5031092;28;20221;-75
2023/08/27 00:58:19;;;;;;;5.78;2.70;;;17.30;99.90;;;;;;5031526;28;20222;-75
2023/08/27 01:00:46;;;;;;;5.32;2.33;;;17.30;99.90;;;;;;5031386;28;20268;-75
2023/08/27 01:03:14;;;;;;;16.52;3.22;;;17.30;99.90;;;;;;5031523;28;20218;-75
2023/08/27 01:05:43;;;;;;;11.40;3.47;;;17.30;99.90;;;;;;5034843;28;20289;-76
2023/08/27 01:08:16;;;;;;;11.18;3.22;;;17.30;99.90;;;;;;5034920;28;20238;-75
2023/08/27 01:10:48;;;;;;;4.93;3.08;;;17.30;99.90;;;;;;5035039;28;20194;-75
2023/08/27 01:13:20;;;;;;;6.95;3.25;;;17.30;99.90;;;;;;5034976;28;20230;-75
2023/08/27 01:15:48;;;;;;;7.43;3.00;;;17.30;99.90;;;;;;5034571;28;20194;-75
2023/08/27 01:18:16;;;;;;;4.57;3.05;;;17.30;99.90;;;;;;5034641;28;20262;-75
2023/08/27 01:20:44;;;;;;;7.45;2.90;;;17.30;99.90;;;;;;5034412;28;20218;-75
2023/08/27 01:23:14;;;;;;;8.35;2.88;;;17.20;99.90;;;;;;5035216;28;20264;-75
2023/08/27 01:25:44;;;;;;;5.35;2.72;;;17.30;99.90;;;;;;5034474;28;20282;-75
2023/08/27 01:28:14;;;;;;;8.18;3.08;;;17.30;99.90;;;;;;5034705;28;20230;-77
2023/08/27 01:30:44;;;;;;;5.65;2.65;;;17.30;99.90;;;;;;5034601;28;20191;-75
2023/08/27 01:33:15;;;;;;;6.20;2.90;;;17.30;99.90;;;;;;5034329;28;20272;-75
2023/08/27 01:35:43;;;;;;;6.43;2.80;;;17.30;99.90;;;;;;5034500;28;20190;-75
2023/08/27 01:38:11;;;;;;;4.85;3.22;;;17.30;99.90;;;;;;5034650;28;20210;-75
2023/08/27 01:40:40;;;;;;;4.38;3.00;;;17.30;99.90;;;;;;5034174;28;20202;-75
2023/08/27 01:43:08;;;;;;;13.93;3.33;;;17.20;99.90;;;;;;5034254;28;20729;-75
2023/08/27 01:45:36;;;;;;;5.90;2.92;;;17.20;99.90;;;;;;5033872;28;20214;-75
2023/08/27 01:48:05;;;;;;;7.43;2.60;;;17.20;99.90;;;;;;5033623;28;20585;-75
2023/08/27 01:50:33;;;;;;;12.35;3.55;;;17.20;99.90;;;;;;5033860;28;20210;-75
2023/08/27 01:53:01;;;;;;;14.48;3.40;;;17.10;99.90;;;;;;5034171;28;20230;-75
2023/08/27 01:55:29;;;;;;;12.07;3.05;;;17.20;99.90;;;;;;5034244;28;20233;-75
2023/08/27 01:57:58;;;;;;;7.28;2.83;;;17.10;99.90;;;;;;5033909;28;20194;-75
2023/08/27 02:00:26;;;;;;;5.15;2.83;;;17.10;99.90;;;;;;5033863;28;20790;-75
2023/08/27 02:02:54;;;;;;;7.18;3.33;;;17.10;99.90;;;;;;5034269;28;20213;-75
2023/08/27 02:05:22;;;;;;;6.75;2.90;;;17.10;99.90;;;;;;5038528;28;20284;-76
2023/08/27 02:07:50;;;;;;;10.90;3.30;;;17.10;99.90;;;;;;5044030;28;20202;-75
2023/08/27 02:10:18;;;;;;;6.88;3.28;;;17.10;99.90;;;;;;5041009;28;20201;-75
2023/08/27 02:12:46;;;;;;;13.32;3.10;;;17.10;99.90;;;;;;5053733;28;20240;-75
2023/08/27 02:15:15;;;;;;;2.60;2.40;;;17.10;99.90;;;;;;5052705;28;20252;-74
2023/08/27 02:17:43;;;;;;;6.50;3.38;;;17.10;99.90;;;;;;5053809;28;20190;-75
2023/08/27 02:20:12;;;;;;;7.15;2.95;;;17.10;99.90;;;;;;5053171;28;20781;-75
2023/08/27 02:22:40;;;;;;;5.65;2.95;;;17.10;99.90;;;;;;5014099;28;20230;-75
2023/08/27 02:25:10;;;;;;;5.43;3.10;;;17.10;99.90;;;;;;5013096;28;20242;-74
2023/08/27 02:27:38;;;;;;;5.05;2.58;;;17.10;99.90;;;;;;5013551;28;20194;-75
2023/08/27 02:30:07;;;;;;;6.35;2.50;;;17.10;99.90;;;;;;5013592;28;20226;-74
2023/08/27 02:32:36;;;;;;;11.48;2.90;;;17.10;99.90;;;;;;5014236;28;20188;-76
2023/08/27 02:35:05;;;;;;;4.78;2.95;;;17.10;99.90;;;;;;5035152;28;20220;-75
2023/08/27 02:37:33;;;;;;;8.10;2.95;;;17.10;99.90;;;;;;5044909;28;20647;-76
2023/08/27 02:40:01;;;;;;;9.95;3.10;;;17.10;99.90;;;;;;5033053;28;20234;-74
2023/08/27 02:42:29;;;;;;;4.28;2.90;;;17.00;99.90;;;;;;5033632;28;20222;-75
2023/08/27 02:44:57;;;;;;;6.20;2.67;;;17.00;99.90;;;;;;5033131;28;20221;-74
2023/08/27 02:47:25;;;;;;;5.57;2.90;;;17.00;99.90;;;;;;5033315;28;20210;-74
2023/08/27 02:49:54;;;;;;;4.50;3.00;;;17.00;99.90;;;;;;5033161;28;20249;-75
2023/08/27 02:52:22;;;;;;;3.83;2.85;;;17.00;99.90;;;;;;5035301;28;20241;-75
2023/08/27 02:54:50;;;;;;;11.23;3.25;;;17.00;99.90;;;;;;5033480;28;20277;-75
2023/08/27 02:57:18;;;;;;;14.43;3.40;;;17.00;99.90;;;;;;5051792;28;20198;-75
2023/08/27 02:59:47;;;;;;;4.57;3.25;;;16.90;99.90;;;;;;5032783;28;20257;-75
2023/08/27 03:02:15;;;;;;;5.50;3.20;;;16.90;99.90;;;;;;5033077;28;20290;-75
2023/08/27 03:04:43;;;;;;;6.00;3.08;;;16.90;99.90;;;;;;5032567;28;20245;-75
2023/08/27 03:07:12;;;;;;;10.05;3.70;;;16.90;99.90;;;;;;5032859;28;20217;-74
2023/08/27 03:09:40;;;;;;;7.22;2.90;;;16.90;99.90;;;;;;5039604;28;20718;-75
2023/08/27 03:12:09;;;;;;;5.15;3.33;;;16.90;99.90;;;;;;5052759;28;20194;-75
2023/08/27 03:14:37;;;;;;;5.65;3.13;;;16.90;99.90;;;;;;5052382;28;20220;-74
2023/08/27 03:17:05;;;;;;;7.43;3.40;;;16.90;99.90;;;;;;5052268;28;20284;-75
2023/08/27 03:19:33;;;;;;;6.03;3.05;;;16.90;99.90;;;;;;5052374;28;20292;-75
2023/08/27 03:22:00;;;;;;;6.20;3.53;;;16.90;99.90;;;;;;5052105;28;20197;-76
2023/08/27 03:24:30;;;;;;;6.90;3.30;;;16.90;99.90;;;;;;5052492;28;20226;-76
2023/08/27 03:26:58;;;;;;;6.63;2.92;;;16.90;99.90;;;;;;5047834;28;20199;-75
2023/08/27 03:29:27;;;;;;;11.52;3.70;;;16.90;99.90;;;;;;5032474;28;20230;-74
2023/08/27 03:31:55;;;;;;;8.52;3.58;;;16.90;99.90;;;;;;5032635;28;20195;-74
2023/08/27 03:34:23;;;;;;;11.23;3.38;;;16.80;99.90;;;;;;5032673;28;20301;-75
2023/08/27 03:36:51;;;;;;;9.98;3.50;;;16.80;99.90;;;;;;5046456;28;20678;-75
2023/08/27 03:39:19;;;;;;;11.18;4.03;;;16.80;99.90;;;;;;5032116;28;20257;-75
2023/08/27 03:41:48;;;;;;;9.90;3.28;;;16.80;99.90;;;;;;5032113;28;20289;-74
2023/08/27 03:44:16;;;;;;;8.35;3.10;;;16.70;99.90;;;;;;5031986;28;20722;-75
2023/08/27 03:46:44;;;;;;;4.15;3.75;;;16.70;99.90;;;;;;5031864;28;20264;-74
2023/08/27 03:49:12;;;;;;;6.30;4.22;;;16.70;99.90;;;;;;5036026;28;20225;-74
2023/08/27 03:51:40;;;;;;;6.25;4.15;;;16.60;99.90;;;;;;5046862;28;20233;-76
2023/08/27 03:54:09;;;;;;;3.70;3.35;;;16.60;99.90;;;;;;5036290;28;20265;-76
2023/08/27 03:56:36;;;;;;;5.82;3.30;;;16.70;99.90;;;;;;5031152;28;20291;-76
2023/08/27 03:59:06;;;;;;;6.43;3.70;;;16.70;99.90;;;;;;5033640;28;20308;-76
2023/08/27 04:01:34;;;;;;;7.10;3.80;;;16.70;99.90;;;;;;5035861;28;20263;-76
2023/08/27 04:04:03;;;;;;;9.75;3.58;;;16.60;99.90;;;;;;5014539;28;20214;-76
2023/08/27 04:06:31;;;;;;;11.68;3.90;;;16.60;99.90;;;;;;5027538;28;20198;-76
2023/08/27 04:08:59;;;;;;;5.97;2.90;;;16.60;99.90;;;;;;5015291;28;20272;-76
2023/08/27 04:11:27;;;;;;;4.90;2.85;;;16.60;99.90;;;;;;5031502;28;20283;-76
2023/08/27 04:13:55;;;;;;;2.97;2.67;;;16.60;99.90;;;;;;5031337;28;20234;-76
2023/08/27 04:16:24;;;;;;;3.33;2.92;;;16.60;99.90;;;;;;5030911;28;20249;-76
2023/08/27 04:18:52;;;;;;;6.05;3.20;;;16.60;99.90;;;;;;5031180;28;20238;-75
2023/08/27 04:21:20;;;;;;;7.57;3.10;;;16.60;99.90;;;;;;5031189;28;20218;-76
2023/08/27 04:23:48;;;;;;;6.45;2.83;;;16.60;99.90;;;;;;5031412;28;20305;-76
2023/08/27 04:26:18;;;;;;;3.22;2.95;;;16.50;99.90;;;;;;5031044;28;20240;-76
2023/08/27 04:28:46;;;;;;;5.72;2.88;;;16.50;99.90;;;;;;5031106;28;20226;-76
2023/08/27 04:31:16;;;;;;;6.32;3.63;;;16.50;99.90;;;;;;5031052;28;20668;-76
2023/08/27 04:33:46;;;;;;;6.10;3.08;;;16.50;99.90;;;;;;5031052;28;20559;-76
2023/08/27 04:36:14;;;;;;;9.45;2.97;;;16.50;99.90;;;;;;5030814;28;20321;-76
2023/08/27 04:38:42;;;;;;;4.22;3.63;;;16.50;99.90;;;;;;5031790;28;20260;-76
2023/08/27 04:41:10;;;;;;;10.55;3.53;;;16.50;99.90;;;;;;5034937;28;20282;-76
2023/08/27 04:43:38;;;;;;;10.52;3.60;;;16.50;99.90;;;;;;5034879;28;20230;-76
2023/08/27 04:46:06;;;;;;;7.82;2.75;;;16.40;99.90;;;;;;5034328;28;20672;-76
2023/08/27 04:48:34;;;;;;;10.57;3.05;;;16.40;99.90;;;;;;5034614;28;20989;-76
2023/08/27 04:51:04;;;;;;;6.50;3.53;;;16.50;99.90;;;;;;5034703;28;20281;-76
2023/08/27 04:53:32;;;;;;;6.32;3.55;;;16.50;99.90;;;;;;5034836;28;20203;-76
2023/08/27 04:56:00;;;;;;;7.57;3.30;;;16.50;99.90;;;;;;5033873;28;20315;-76
2023/08/27 04:58:28;;;;;;;3.58;2.88;;;16.40;99.90;;;;;;5034244;28;20306;-76
2023/08/27 05:00:55;;;;;;;3.10;2.90;;;16.40;99.90;;;;;;5034393;28;20289;-76
2023/08/27 05:03:26;;;;;;;9.38;3.42;;;16.40;99.90;;;;;;5034374;28;20252;-76
2023/08/27 05:05:54;;;;;;;8.55;3.63;;;16.40;99.90;;;;;;5034087;28;20623;-76
2023/08/27 05:08:23;;;;;;;6.40;3.47;;;16.40;99.90;;;;;;5034144;28;20226;-76
2023/08/27 05:10:51;;;;;;;7.43;3.60;;;16.40;99.90;;;;;;5033885;28;20202;-76
2023/08/27 05:13:19;;;;;;;8.45;3.67;;;16.40;99.90;;;;;;5033792;28;20230;-76
2023/08/27 05:15:47;;;;;;;6.75;3.60;;;16.50;99.90;;;;;;5033746;28;20320;-76
2023/08/27 05:18:15;;;;;;;8.50;3.50;;;16.50;99.90;;;;;;5033976;28;20230;-76
2023/08/27 05:20:43;;;;;;;5.80;2.97;;;16.50;99.90;;;;;;5033928;28;20232;-76
2023/08/27 05:23:11;;;;;;;4.10;3.70;;;16.50;99.90;;;;;;5033868;28;20670;-76
2023/08/27 05:25:40;;;;;;;11.68;4.05;;;16.50;99.90;;;;;;5033353;28;20237;-76
2023/08/27 05:28:11;;;;;;;10.85;3.67;;;16.50;99.90;;;;;;5033924;28;20206;-76
2023/08/27 05:30:41;;;;;;;9.20;3.83;;;16.50;99.90;;;;;;5033779;28;20293;-76
2023/08/27 05:33:09;;;;;;;6.80;4.25;;;16.50;99.90;;;;;;5033579;28;20285;-76
2023/08/27 05:35:37;;;;;;;8.55;4.55;;;16.60;99.90;;;;;;5033193;28;20222;-76
2023/08/27 05:38:05;;;;;;;6.05;3.97;;;16.60;99.90;;;;;;5033432;28;20253;-76
2023/08/27 05:40:33;;;;;;;11.15;4.47;;;16.60;99.90;;;;;;5033319;28;20305;-75
2023/08/27 05:43:02;;;;;;;7.97;3.92;;;16.60;99.90;;;;;;5033769;28;20202;-76
2023/08/27 05:45:30;;;;;;;7.88;4.70;;;16.60;99.90;;;;;;5033053;28;20253;-76
2023/08/27 05:47:58;;;;;;;7.88;3.92;;;16.70;99.90;;;;;;5033454;28;20257;-76
2023/08/27 05:50:27;;;;;;;13.10;4.65;;;16.70;99.90;;;;;;5032188;28;20210;-75
2023/08/27 05:52:55;;;;;;;17.33;3.78;;;16.70;99.90;;;;;;5033589;28;20289;-76
2023/08/27 05:55:23;;;;;;;12.70;4.70;;;16.70;99.90;;;;;;5033269;28;20300;-76
2023/08/27 05:57:50;;;;;;;6.43;4.60;;;16.80;99.90;;;;;;5033226;28;20242;-76
2023/08/27 06:00:20;;;;;;;6.93;5.90;;;16.80;99.90;;;;;;5033517;28;20234;-74
2023/08/27 06:02:48;;;;;;;9.80;5.60;;;16.80;99.90;;;;;;5038920;28;20260;-74
2023/08/27 06:05:16;;;;;;;10.00;6.03;;;16.90;99.90;;;;;;5026184;28;20225;-74
2023/08/27 06:07:44;;;;;;;7.63;5.95;;;16.90;99.90;;;;;;5032936;28;20289;-74
2023/08/27 06:10:12;;;;;;;10.75;6.15;;;17.00;99.90;;;;;;5033363;28;20254;-75
2023/08/27 06:12:40;;;;;;;8.38;5.72;;;17.00;99.90;;;;;;5033064;28;20207;-74
2023/08/27 06:15:08;;;;;;;9.13;5.75;;;17.00;99.90;;;;;;5032938;28;20253;-74
2023/08/27 06:17:37;;;;;;;5.93;5.43;;;17.10;99.90;;;;;;5032863;28;20257;-75
2023/08/27 06:20:07;;;;;;;9.73;5.60;;;17.20;99.90;;;;;;5031677;28;20250;-75
2023/08/27 06:22:35;;;;;;;9.40;5.07;;;17.20;99.90;;;;;;5031187;28;20241;-75
2023/08/27 06:25:03;;;;;;;7.97;5.47;;;17.30;99.90;;;;;;5030809;28;20629;-75
2023/08/27 06:27:31;;;;;;;6.88;5.53;;;17.40;99.90;;;;;;5031583;28;20199;-75
2023/08/27 06:29:59;;;;;;;8.10;5.50;;;17.40;99.90;;;;;;5031344;28;20226;-75
2023/08/27 06:32:28;;;;;;;6.85;5.15;;;17.50;99.90;;;;;;5031296;28;20256;-74
2023/08/27 06:34:57;;;;;;;12.48;5.78;;;17.50;99.90;;;;;;5032416;28;20230;-75
2023/08/27 06:37:25;;;;;;;5.30;4.90;;;17.50;99.90;;;;;;5032517;28;20306;-74
2023/08/27 06:39:53;;;;;;;7.50;5.18;;;17.50;99.90;;;;;;5032537;28;20261;-74
2023/08/27 06:42:21;;;;;;;5.78;5.25;;;17.50;99.90;;;;;;5032407;28;20241;-74
2023/08/27 06:44:48;;;;;;;7.05;4.85;;;17.50;99.90;;;;;;5031964;28;20246;-74
2023/08/27 06:47:16;;;;;;;5.35;4.78;;;17.50;99.90;;;;;;5032378;28;20252;-74
2023/08/27 06:49:44;;;;;;;5.63;4.55;;;17.60;99.90;;;;;;5032458;28;20319;-75
2023/08/27 06:52:14;;;;;;;9.40;4.65;;;17.60;99.90;;;;;;5032326;28;20234;-74
2023/08/27 06:54:41;;;;;;;9.07;4.20;;;17.60;99.90;;;;;;5032235;28;20272;-74
2023/08/27 06:57:09;;;;;;;8.82;5.22;;;17.70;99.90;;;;;;5032192;28;20222;-75
2023/08/27 06:59:37;;;;;;;9.13;6.28;;;17.80;99.90;;;;;;5031933;28;20218;-74
2023/08/27 07:02:06;;;;;;;8.15;5.75;;;17.80;99.90;;;;;;5031856;28;20238;-74
2023/08/27 07:04:34;;;;;;;8.90;5.05;;;17.80;99.90;;;;;;5031851;28;20260;-75
2023/08/27 07:07:01;;;;;;;8.80;5.28;;;17.80;99.90;;;;;;5031862;28;20233;-74
2023/08/27 07:09:31;;;;;;;6.80;5.25;;;17.80;99.90;;;;;;5031843;28;20302;-74
2023/08/27 07:11:59;;;;;;;8.43;5.22;;;17.80;99.90;;;;;;5046616;28;20290;-75
2023/08/27 07:14:27;;;;;;;7.25;5.22;;;17.80;99.90;;;;;;5040822;28;20248;-75
2023/08/27 07:16:55;;;;;;;8.40;4.97;;;17.80;99.90;;;;;;5035414;28;20272;-75
2023/08/27 07:19:23;;;;;;;14.00;5.75;;;17.80;99.90;;;;;;5016562;28;20793;-74
2023/08/27 07:21:50;;;;;;;6.30;5.68;;;17.80;99.90;;;;;;5021244;28;20210;-74
2023/08/27 07:24:19;;;;;;;5.32;4.93;;;17.80;99.90;;;;;;5029341;28;20280;-75
2023/08/27 07:26:48;;;;;;;6.55;4.90;;;17.80;99.90;;;;;;5031194;28;20238;-75
2023/08/27 07:29:16;;;;;;;13.13;5.65;;;17.80;99.90;;;;;;5031737;28;20218;-74
2023/08/27 07:31:45;;;;;;;7.28;5.07;;;17.70;99.90;;;;;;5031623;28;20210;-75
2023/08/27 07:34:12;;;;;;;7.18;5.22;;;17.80;99.90;;;;;;5031681;28;20214;-75
2023/08/27 07:36:40;;;;;;;7.70;4.68;;;17.80;99.90;;;;;;5031185;28;20310;-74
2023/08/27 07:39:08;;;;;;;9.57;4.82;;;17.80;99.90;;;;;;5031267;28;20225;-74
2023/08/27 07:41:36;;;;;;;6.53;4.93;;;17.80;99.90;;;;;;5031525;28;20233;-74
2023/08/27 07:44:06;;;;;;;6.03;5.45;;;17.90;99.90;;;;;;5031614;28;20272;-74
2023/08/27 07:46:33;;;;;;;6.30;5.30;;;17.90;99.90;;;;;;5031112;28;20348;-75
2023/08/27 07:49:01;;;;;;;9.88;4.88;;;18.00;99.90;;;;;;5031322;28;20302;-75
2023/08/27 07:51:30;;;;;;;7.53;4.75;;;18.00;99.90;;;;;;5031142;28;20229;-74
2023/08/27 07:53:58;;;;;;;7.13;5.10;;;18.10;99.90;;;;;;5031477;28;20259;-75
2023/08/27 07:56:26;;;;;;;7.00;5.50;;;18.10;99.90;;;;;;5030870;28;20225;-75
2023/08/27 07:58:54;;;;;;;6.03;5.18;;;18.20;99.90;;;;;;5031398;28;20641;-74
2023/08/27 08:01:23;;;;;;;10.43;4.72;;;18.20;99.90;;;;;;5030855;28;20725;-74
2023/08/27 08:03:51;;;;;;;8.75;4.70;;;18.30;99.90;;;;;;5031209;28;20203;-74
2023/08/27 08:06:19;;;;;;;9.38;4.57;;;18.30;99.90;;;;;;5030829;28;20313;-75
2023/08/27 08:08:47;;;;;;;6.72;4.43;;;18.40;99.90;;;;;;5031069;28;20315;-74
2023/08/27 08:11:16;;;;;;;9.77;4.70;;;18.40;99.90;;;;;;5031204;28;20253;-74
2023/08/27 08:13:45;;;;;;;11.48;4.97;;;18.40;99.90;;;;;;5030154;28;20211;-74
2023/08/27 08:16:13;;;;;;;4.53;4.13;;;18.40;99.90;;;;;;5045803;28;20216;-74
2023/08/27 08:18:42;;;;;;;13.20;4.40;;;18.40;99.90;;;;;;5023728;28;20365;-74
2023/08/27 08:21:10;;;;;;;12.65;5.07;;;18.40;99.90;;;;;;5035082;28;20202;-74
2023/08/27 08:23:38;;;;;;;7.47;4.70;;;18.50;99.90;;;;;;5035339;28;20233;-74
2023/08/27 08:26:06;;;;;;;7.07;4.65;;;18.50;99.90;;;;;;5034955;28;20229;-73
2023/08/27 08:28:34;;;;;;;5.97;4.13;;;18.50;99.90;;;;;;5034559;28;20226;-74
2023/08/27 08:31:03;;;;;;;7.85;4.40;;;18.50;99.90;;;;;;5034826;28;20234;-74
2023/08/27 08:33:31;;;;;;;9.98;4.97;;;18.50;99.90;;;;;;5034791;28;20206;-74
2023/08/27 08:36:00;;;;;;;8.15;4.85;;;18.50;99.90;;;;;;5034987;28;20229;-74
2023/08/27 08:38:28;;;;;;;8.00;4.45;;;18.50;99.90;;;;;;5034765;28;20317;-74
2023/08/27 08:40:57;;;;;;;11.18;4.63;;;18.40;99.90;;;;;;5034736;28;20221;-74
2023/08/27 08:43:28;;;;;;;7.85;5.20;;;18.40;99.90;;;;;;5034600;28;20248;-74
2023/08/27 08:46:00;;;;;;;8.57;4.82;;;18.40;99.90;;;;;;5034270;28;20209;-74
2023/08/27 08:48:28;;;;;;;5.20;4.68;;;18.40;99.90;;;;;;5034555;28;20242;-74
2023/08/27 08:50:56;;;;;;;8.80;5.53;;;18.50;99.90;;;;;;5034629;28;20230;-74
2023/08/27 08:53:26;;;;;;;5.90;5.00;;;18.60;99.90;;;;;;5034657;28;20230;-74
2023/08/27 08:55:56;;;;;;;12.65;5.50;;;18.60;99.90;;;;;;5034482;28;20240;-74
2023/08/27 08:58:25;;;;;;;4.78;4.32;;;18.70;99.90;;;;;;5034006;28;20280;-74
2023/08/27 09:00:52;;;;;;;7.60;5.05;;;18.80;99.90;;;;;;5034556;28;20242;-73
2023/08/27 09:03:20;;;;;;;8.20;5.68;;;18.80;99.90;;;;;;5033735;28;20627;-73
2023/08/27 09:05:48;;;;;;;10.07;6.05;;;18.90;99.90;;;;;;5025516;28;20226;-74
2023/08/27 09:08:18;;;;;;;11.50;5.70;;;19.10;99.90;;;;;;5034000;28;20302;-74
2023/08/27 09:10:47;;;;;;;7.05;5.47;;;19.10;99.90;;;;;;5034364;28;20234;-74
2023/08/27 09:13:17;;;;;;;9.80;6.47;;;19.30;99.90;;;;;;5034201;28;20241;-74
2023/08/27 09:15:45;;;;;;;10.45;5.88;;;19.40;99.90;;;;;;5033400;28;20301;-73
2023/08/27 09:18:13;;;;;;;12.00;6.88;;;19.50;99.90;;;;;;5033090;28;20225;-74
2023/08/27 09:20:41;;;;;;;16.20;9.45;;;19.70;99.90;;;;;;5031621;28;20645;-74
2023/08/27 09:23:09;;;;;;;18.60;10.23;;;19.80;99.90;;;;;;5033362;28;20206;-74
2023/08/27 09:25:37;;;;;;;20.85;12.63;;;19.90;99.90;;;;;;5033314;28;20626;-73
2023/08/27 09:28:07;;;;;;;22.00;12.55;;;20.00;99.90;;;;;;5033861;28;20229;-74
2023/08/27 09:30:34;;;;;;;20.45;11.25;;;20.20;99.90;;;;;;5033945;28;20293;-74
2023/08/27 09:33:03;;;;;;;28.42;15.30;;;20.40;99.90;;;;;;5033637;28;20202;-74
2023/08/27 09:35:41;;;;;;;23.42;13.93;;;20.60;99.90;;;;;;5033424;28;20205;-74
2023/08/27 09:38:12;;;;;;;25.60;15.45;;;20.80;99.90;;;;;;5032417;28;20234;-74
2023/08/27 09:40:40;;;;;;;30.73;18.90;;;21.00;99.90;;;;;;5035858;28;20202;-74
2023/08/27 09:43:10;;;;;;;27.60;17.00;;;21.10;99.90;;;;;;5033452;28;20249;-74
2023/08/27 09:45:38;;;;;;;30.42;17.15;;;21.10;99.90;;;;;;5028434;28;20210;-74
2023/08/27 09:48:06;;;;;;;23.75;16.23;;;21.30;99.90;;;;;;5034451;28;20198;-73
2023/08/27 09:50:34;;;;;;;22.45;14.63;;;21.30;99.90;;;;;;5032269;28;20288;-73
2023/08/27 09:53:06;;;;;;;20.77;14.05;;;21.40;99.90;;;;;;5061874;22;20312;-60
2023/08/27 09:55:35;;;;;;;18.90;13.57;;;21.60;99.90;;;;;;5052042;28;20647;-59
2023/08/27 09:58:03;;;;;;;23.55;13.10;;;21.70;99.90;;;;;;5052860;28;20251;-59
2023/08/27 10:00:33;;;;;;;23.02;14.68;;;21.70;99.90;;;;;;5053150;28;20236;-60
2023/08/27 10:03:01;;;;;;;21.83;14.60;;;21.70;99.90;;;;;;5036707;28;21010;-59
2023/08/27 10:05:30;;;;;;;17.45;13.85;;;21.60;99.90;;;;;;5052970;28;20596;-60
2023/08/27 10:07:59;;;;;;;22.50;14.60;;;21.50;99.90;;;;;;5053078;28;20221;-60
2023/08/27 10:10:27;;;;;;;21.35;14.57;;;21.60;99.90;;;;;;5053079;28;20247;-60
2023/08/27 10:12:55;;;;;;;18.92;14.45;;;21.70;99.90;;;;;;5052797;28;20193;-59
2023/08/27 10:15:24;;;;;;;17.67;12.93;;;21.80;99.90;;;;;;5052420;28;20622;-59
2023/08/27 10:17:53;;;;;;;17.95;12.50;;;21.90;99.90;;;;;;5052706;28;20229;-60
2023/08/27 10:20:21;;;;;;;16.92;12.35;;;22.30;99.90;;;;;;5053339;28;20274;-59
2023/08/27 10:22:50;;;;;;;14.13;9.88;;;22.70;99.90;;;;;;5052565;28;20262;-58
2023/08/27 10:25:18;;;;;;;11.68;9.75;;;23.00;99.90;;;;;;5052588;28;20197;-57
2023/08/27 10:27:47;;;;;;;12.43;10.23;;;23.50;99.90;;;;;;5052221;28;20217;-58
2023/08/27 10:30:16;;;;;;;17.67;11.05;;;24.00;99.90;;;;;;5052837;28;20215;-58
2023/08/27 10:32:44;;;;;;;11.65;9.10;;;24.40;99.90;;;;;;5052412;28;20309;-60
2023/08/27 10:35:13;;;;;;;14.35;11.13;;;24.50;99.90;;;;;;5052226;28;20202;-60
2023/08/27 10:37:43;;;;;;;13.38;9.93;;;24.30;99.90;;;;;;5051607;28;20226;-57
2023/08/27 10:40:12;;;;;;;14.55;10.05;;;24.30;99.90;;;;;;5052290;28;20673;-60
2023/08/27 10:42:40;;;;;;;12.10;8.27;;;24.40;99.90;;;;;;5051964;28;20251;-62
2023/08/27 10:45:15;;;;;;;12.63;9.63;;;24.40;99.90;;;;;;5052401;28;20293;-62
2023/08/27 10:47:43;;;;;;;12.93;8.82;;;24.30;99.90;;;;;;5052276;28;20279;-62
2023/08/27 10:50:21;;;;;;;9.60;7.78;;;24.40;99.90;;;;;;5052544;28;20229;-63
2023/08/27 10:52:49;;;;;;;12.70;9.05;;;24.20;99.90;;;;;;5052031;28;20596;-61
2023/08/27 10:55:20;;;;;;;17.33;8.55;;;24.10;99.90;;;;;;5051945;28;20233;-63
2023/08/27 10:57:48;;;;;;;14.25;9.20;;;23.80;99.90;;;;;;5044753;28;20249;-61
2023/08/27 11:00:17;;;;;;;10.55;9.15;;;23.50;99.90;;;;;;5051917;28;20198;-59
2023/08/27 11:02:58;;;;;;;10.38;7.05;;;23.20;99.90;;;;;;5051511;28;20313;-60
2023/08/27 11:05:29;;;;;;;7.88;6.30;;;22.80;99.90;;;;;;5051175;28;20315;-59
2023/08/27 11:07:59;;;;;;;8.85;6.72;;;22.60;99.90;;;;;;5049022;28;20260;-60
2023/08/27 11:10:31;;;;;;;12.88;7.10;;;22.40;99.90;;;;;;5049852;28;20205;-59
2023/08/27 11:12:59;;;;;;;9.15;7.78;;;22.20;99.90;;;;;;5035578;28;20225;-61
2023/08/27 11:15:28;;;;;;;9.40;7.50;;;22.00;99.90;;;;;;5051342;28;20205;-59
2023/08/27 11:17:56;;;;;;;9.93;7.47;;;21.90;99.90;;;;;;5050997;28;20897;-59
2023/08/27 11:20:25;;;;;;;13.55;8.13;;;21.80;99.90;;;;;;5051704;28;20260;-60
2023/08/27 11:22:57;;;;;;;11.90;8.13;;;21.70;99.90;;;;;;5051626;28;20300;-59
2023/08/27 11:25:29;;;;;;;9.68;6.60;;;21.70;99.90;;;;;;5048123;28;20252;-60
2023/08/27 11:27:58;;;;;;;8.02;6.30;;;21.60;99.90;;;;;;5053939;28;20649;-59
2023/08/27 11:30:27;;;;;;;9.35;6.68;;;21.50;99.90;;;;;;5050924;28;20209;-59
2023/08/27 11:32:55;;;;;;;8.10;6.75;;;21.50;99.90;;;;;;5050864;28;20205;-58
2023/08/27 11:35:24;;;;;;;8.25;6.43;;;21.50;99.90;;;;;;5051096;28;20673;-59
2023/08/27 11:37:52;;;;;;;8.50;5.40;;;21.60;99.90;;;;;;5049788;28;20370;-60
2023/08/27 11:40:22;;;;;;;9.48;5.20;;;21.70;99.90;;;;;;5049453;28;20288;-60
2023/08/27 11:42:51;;;;;;;7.50;5.40;;;21.90;99.90;;;;;;5049107;28;20212;-60
2023/08/27 11:45:19;;;;;;;5.22;4.78;;;22.10;99.90;;;;;;5049086;28;20729;-59
2023/08/27 11:47:46;;;;;;;5.53;4.65;;;22.30;99.90;;;;;;5048973;28;20662;-59
2023/08/27 11:50:14;;;;;;;5.72;4.95;;;22.40;99.90;;;;;;5049453;28;20197;-60
2023/08/27 11:52:42;;;;;;;6.07;4.75;;;22.40;99.90;;;;;;5050418;28;20271;-59
2023/08/27 11:55:10;;;;;;;4.10;3.80;;;22.40;99.90;;;;;;5051106;28;20193;-58
2023/08/27 11:57:40;;;;;;;3.65;2.80;;;22.40;99.90;;;;;;5051058;28;20273;-59
2023/08/27 12:00:11;;;;;;;2.60;2.50;;;22.40;99.90;;;;;;5051369;28;20274;-60
2023/08/27 12:02:39;;;;;;;3.25;3.00;;;22.50;99.90;;;;;;5051091;28;20197;-59
2023/08/27 12:05:08;;;;;;;2.40;2.20;;;22.60;99.90;;;;;;5050996;28;20275;-59
2023/08/27 12:07:37;;;;;;;4.05;2.10;;;22.80;99.90;;;;;;5050806;28;20193;-59
2023/08/27 12:10:11;;;;;;;3.20;2.13;;;22.80;99.90;;;;;;5050963;28;20255;-61
2023/08/27 12:12:40;;;;;;;1.85;1.75;;;22.90;99.90;;;;;;5051061;28;20287;-60
2023/08/27 12:15:09;;;;;;;2.58;1.80;;;23.10;99.90;;;;;;5050814;28;20224;-59
2023/08/27 12:17:37;;;;;;;2.78;1.75;;;23.20;99.90;;;;;;5050922;28;20228;-60
2023/08/27 12:20:07;;;;;;;1.70;1.60;;;23.20;99.90;;;;;;5051087;28;20275;-60
2023/08/27 12:22:42;;;;;;;2.92;1.75;;;23.10;99.90;;;;;;5050656;28;20212;-60
2023/08/27 12:25:11;;;;;;;3.45;2.03;;;23.00;99.90;;;;;;5050744;28;20660;-58
2023/08/27 12:27:41;;;;;;;2.28;2.15;;;22.90;99.90;;;;;;5050718;28;20229;-60
2023/08/27 12:30:10;;;;;;;5.93;1.70;;;23.00;99.90;;;;;;5051009;28;20201;-59
2023/08/27 12:32:38;;;;;;;3.60;1.70;;;23.00;99.90;;;;;;5050645;28;20197;-57
2023/08/27 12:35:07;;;;;;;1.70;1.60;;;23.10;99.90;;;;;;5050411;28;20587;-59
2023/08/27 12:37:35;;;;;;;1.58;1.27;;;23.40;99.90;;;;;;5050534;28;20198;-61
2023/08/27 12:40:05;;;;;;;2.55;1.77;;;23.70;99.90;;;;;;5050900;28;20306;-61
2023/08/27 12:42:33;;;;;;;2.15;1.60;;;24.00;99.90;;;;;;5050741;28;20211;-60
2023/08/27 12:45:04;;;;;;;2.55;1.60;;;24.10;99.90;;;;;;5050543;28;20255;-60
2023/08/27 12:47:31;;;;;;;1.83;1.70;;;24.30;99.90;;;;;;5050460;28;20289;-61
2023/08/27 12:49:59;;;;;;;1.63;1.52;;;24.50;99.90;;;;;;5050804;28;20224;-59